Time;durP1;ratioP1;P1;durP2;ratioP2;P2;SDS_P1;SDS_P2;PMS_P1;PMS_P2;Temp;Humidity;BMP_temperature;BMP_pressure;BME280_temperature;BME280_humidity;BME280_pressure;Samples;Min_cycle;Max_cycle;Signal;HPM_P1;HPM_P2
2023/10/19 00:00:19;;;;;;;9.57;7.22;;;;;;;8.42;100.00;99337.00;1235468;23;20273;-83
2023/10/19 00:00:51;;;;;;;9.70;7.93;;;;;;;8.43;100.00;99343.13;1241466;23;20268;-84
2023/10/19 00:01:25;;;;;;;10.63;7.47;;;;;;;8.44;100.00;99339.41;1229927;24;20721;-83
2023/10/19 00:01:58;;;;;;;10.38;8.15;;;;;;;8.48;100.00;99332.59;1235907;24;20272;-83
2023/10/19 00:02:31;;;;;;;12.40;9.07;;;;;;;8.44;100.00;99334.91;1237640;24;20261;-84
2023/10/19 00:03:03;;;;;;;8.13;6.97;;;;;;;8.54;100.00;99334.31;1237700;24;20261;-83
2023/10/19 00:03:35;;;;;;;14.30;9.48;;;;;;;8.54;100.00;99340.41;1234131;23;20258;-83
2023/10/19 00:04:07;;;;;;;12.60;7.10;;;;;;;8.47;100.00;99329.13;1236428;23;20276;-84
2023/10/19 00:04:40;;;;;;;11.30;8.43;;;;;;;8.51;100.00;99324.19;1230193;24;20285;-83
2023/10/19 00:05:14;;;;;;;11.43;8.00;;;;;;;8.51;100.00;99321.53;1225834;24;20345;-84
2023/10/19 00:05:49;;;;;;;8.10;7.28;;;;;;;8.49;100.00;99321.75;1241482;23;20324;-84
2023/10/19 00:06:21;;;;;;;10.18;7.43;;;;;;;8.54;100.00;99321.84;1241526;23;20738;-83
2023/10/19 00:06:55;;;;;;;9.15;7.63;;;;;;;8.56;100.00;99326.91;1247272;23;20268;-84
2023/10/19 00:07:27;;;;;;;10.93;8.10;;;;;;;8.55;100.00;99320.78;1232131;24;20257;-84
2023/10/19 00:08:00;;;;;;;10.52;8.20;;;;;;;8.49;100.00;99321.75;1232639;24;20277;-83
2023/10/19 00:08:43;;;;;;;8.25;7.38;;;;;;;8.50;100.00;99314.59;1241416;23;20308;-84
2023/10/19 00:09:15;;;;;;;11.85;7.63;;;;;;;8.39;100.00;99318.13;1241162;23;20257;-84
2023/10/19 00:09:51;;;;;;;11.45;8.48;;;;;;;8.50;100.00;99309.31;1243262;23;20268;-84
2023/10/19 00:10:28;;;;;;;11.30;7.78;;;;;;;8.45;100.00;99303.88;1232539;24;20602;-84
2023/10/19 00:11:07;;;;;;;11.65;8.23;;;;;;;8.50;100.00;99302.16;1232152;24;20261;-84
2023/10/19 00:11:40;;;;;;;10.93;8.07;;;;;;;8.59;100.00;99308.66;1236177;24;20272;-84
2023/10/19 00:12:12;;;;;;;11.10;7.88;;;;;;;8.57;100.00;99301.97;1241744;23;20276;-84
2023/10/19 00:12:52;;;;;;;12.00;7.82;;;;;;;8.52;100.00;99302.69;1224652;24;20611;-84
2023/10/19 00:13:24;;;;;;;11.95;7.13;;;;;;;8.43;100.00;99296.16;1238435;23;20268;-84
2023/10/19 00:13:57;;;;;;;8.85;7.60;;;;;;;8.40;100.00;99291.34;1232298;24;20689;-84
2023/10/19 00:14:29;;;;;;;9.30;8.30;;;;;;;8.51;100.00;99297.63;1236947;23;20269;-84
2023/10/19 00:15:03;;;;;;;12.60;10.00;;;;;;;8.51;100.00;99300.28;1225308;24;20306;-84
2023/10/19 00:15:48;;;;;;;12.40;7.95;;;;;;;8.52;100.00;99299.25;1235578;23;20253;-83
2023/10/19 00:16:25;;;;;;;10.75;8.57;;;;;;;8.50;100.00;99290.72;1243494;23;20249;-83
2023/10/19 00:17:00;;;;;;;12.23;8.43;;;;;;;8.56;100.00;99298.53;1249605;23;20303;-83
2023/10/19 00:17:32;;;;;;;9.85;7.88;;;;;;;8.53;100.00;99292.91;1248933;23;20575;-83
2023/10/19 00:18:20;;;;;;;13.85;8.27;;;;;;;8.56;100.00;99289.75;1246919;23;20310;-84
2023/10/19 00:18:52;;;;;;;11.35;7.95;;;;;;;8.56;100.00;99287.91;1230027;24;20606;-84
2023/10/19 00:19:27;;;;;;;11.10;7.57;;;;;;;8.51;100.00;99295.00;1232014;24;20720;-83
2023/10/19 00:21:51;;;;;;;11.80;8.80;;;;;;;8.51;100.00;99287.03;1242861;23;20586;-85
2023/10/19 00:22:24;;;;;;;;;;;;;;;8.51;100.00;99284.38;1244054;23;20601;-83
2023/10/19 00:22:57;;;;;;;9.98;7.72;;;;;;;8.55;100.00;99282.84;1244667;23;19918;-84
2023/10/19 00:23:31;;;;;;;9.20;7.75;;;;;;;8.47;100.00;99277.91;1249586;23;20248;-84
2023/10/19 00:24:04;;;;;;;10.05;8.00;;;;;;;8.53;100.00;99279.63;1241394;23;20407;-84
2023/10/19 00:24:36;;;;;;;10.90;7.97;;;;;;;8.59;100.00;99279.47;1235693;24;20674;-84
2023/10/19 00:25:09;;;;;;;9.27;7.80;;;;;;;8.67;100.00;99280.91;1235808;24;20269;-84
2023/10/19 00:25:44;;;;;;;9.52;7.05;;;;;;;8.68;100.00;99293.13;1241478;23;20283;-84
2023/10/19 00:26:25;;;;;;;13.93;9.40;;;;;;;8.60;100.00;99283.72;1235389;23;20276;-84
2023/10/19 00:27:14;;;;;;;11.48;8.10;;;;;;;8.71;100.00;99287.31;1235775;24;20284;-85
2023/10/19 00:27:48;;;;;;;9.68;8.45;;;;;;;8.59;100.00;99276.00;1241296;23;20272;-84
2023/10/19 00:28:22;;;;;;;8.90;7.07;;;;;;;8.63;100.00;99280.56;1237512;24;20268;-84
2023/10/19 00:28:55;;;;;;;10.98;8.02;;;;;;;8.66;100.00;99277.44;1235194;24;20749;-84
2023/10/19 00:29:30;;;;;;;8.10;7.10;;;;;;;8.61;100.00;99273.91;1229582;23;20273;-84
2023/10/19 00:30:08;;;;;;;13.55;9.10;;;;;;;8.60;100.00;99274.94;1237946;23;20269;-84
2023/10/19 00:30:42;;;;;;;9.48;7.63;;;;;;;8.64;100.00;99276.06;1237302;23;20344;-83
2023/10/19 00:31:14;;;;;;;12.57;8.75;;;;;;;8.66;100.00;99281.94;1240449;23;20594;-83
2023/10/19 00:31:46;;;;;;;15.45;10.57;;;;;;;8.68;100.00;99287.81;1239371;23;20280;-84
2023/10/19 00:32:19;;;;;;;9.73;8.00;;;;;;;8.72;100.00;99282.81;1240043;23;20257;-83
2023/10/19 00:32:52;;;;;;;16.10;8.70;;;;;;;8.68;100.00;99282.50;1237271;23;20340;-84
2023/10/19 00:33:28;;;;;;;10.77;8.05;;;;;;;8.66;100.00;99284.59;1235739;24;20272;-84
2023/10/19 00:34:00;;;;;;;12.85;8.63;;;;;;;8.79;100.00;99289.59;1231774;24;20262;-84
2023/10/19 00:34:33;;;;;;;12.38;8.70;;;;;;;8.78;100.00;99274.72;1232241;24;20257;-84
2023/10/19 00:35:26;;;;;;;9.50;8.43;;;;;;;8.78;100.00;99280.03;1231914;24;20305;-84
2023/10/19 00:36:08;;;;;;;11.43;9.00;;;;;;;8.70;100.00;99280.41;1241395;23;20272;-84
2023/10/19 00:36:40;;;;;;;12.27;8.13;;;;;;;8.71;100.00;99276.72;1242737;23;20268;-84
2023/10/19 00:37:18;;;;;;;11.48;8.98;;;;;;;8.64;100.00;99278.72;1235733;24;20265;-84
2023/10/19 00:37:52;;;;;;;9.77;8.43;;;;;;;8.71;100.00;99275.91;1241013;23;20776;-84
2023/10/19 00:38:27;;;;;;;12.05;9.02;;;;;;;8.70;100.00;99275.09;1241424;23;20657;-84
2023/10/19 00:39:01;;;;;;;8.93;8.00;;;;;;;8.70;100.00;99279.59;1243531;23;20253;-84
2023/10/19 00:39:53;;;;;;;10.80;8.65;;;;;;;8.64;100.00;99278.72;1241473;23;20267;-85
2023/10/19 00:40:34;;;;;;;11.30;9.07;;;;;;;8.70;100.00;99261.03;1249137;23;20256;-84
2023/10/19 00:41:43;;;;;;;11.90;8.45;;;;;;;8.86;100.00;99263.69;1248653;23;20307;-85
2023/10/19 00:42:17;;;;;;;9.73;8.00;;;;;;;8.89;100.00;99271.16;1235450;24;20268;-84
2023/10/19 00:42:54;;;;;;;12.98;9.90;;;;;;;8.87;100.00;99264.47;1240278;23;20257;-85
2023/10/19 00:43:57;;;;;;;10.25;7.85;;;;;;;8.78;100.00;99272.06;1235682;24;20269;-84
2023/10/19 00:44:25;;;;;;;8.60;7.47;;;;;;;8.78;100.00;99266.75;1229592;24;20282;-83
2023/10/19 00:45:04;;;;;;;10.90;8.48;;;;;;;8.77;100.00;99259.03;1235585;24;20298;-84
2023/10/19 00:45:39;;;;;;;9.23;7.93;;;;;;;8.78;100.00;99261.44;1242044;23;20268;-85
2023/10/19 00:47:03;;;;;;;9.57;7.97;;;;;;;8.83;100.00;99264.16;1244252;23;20566;-84
2023/10/19 00:47:42;;;;;;;10.60;9.52;;;;;;;8.81;100.00;99260.94;1235247;23;20614;-85
2023/10/19 00:48:14;;;;;;;11.90;8.93;;;;;;;8.75;100.00;99261.09;1226328;24;20017;-85
2023/10/19 00:48:49;;;;;;;11.88;9.23;;;;;;;8.86;100.00;99268.19;1237504;24;20272;-84
2023/10/19 00:49:23;;;;;;;18.25;8.85;;;;;;;8.88;100.00;99261.59;1235782;24;20280;-84
2023/10/19 00:49:55;;;;;;;11.27;8.88;;;;;;;8.89;100.00;99262.38;1237973;24;20257;-84
2023/10/19 00:50:30;;;;;;;13.13;9.18;;;;;;;8.91;100.00;99261.09;1229747;24;20609;-85
2023/10/19 00:51:26;;;;;;;10.35;9.25;;;;;;;8.87;100.00;99261.81;1235367;24;20272;-84
2023/10/19 00:52:02;;;;;;;11.73;8.10;;;;;;;8.94;100.00;99257.94;1230041;24;20265;-84
2023/10/19 00:52:43;;;;;;;8.25;7.45;;;;;;;8.97;100.00;99264.63;1236631;23;20801;-85
2023/10/19 00:53:15;;;;;;;12.10;8.32;;;;;;;8.96;100.00;99258.50;1247363;23;20302;-85
2023/10/19 00:53:48;;;;;;;10.50;8.90;;;;;;;8.97;100.00;99254.78;1241375;23;20027;-84
2023/10/19 00:54:35;;;;;;;10.32;7.95;;;;;;;8.99;100.00;99262.50;1241435;23;20287;-84
2023/10/19 00:55:07;;;;;;;12.27;9.85;;;;;;;8.93;100.00;99252.88;1229782;24;20603;-84
2023/10/19 00:55:40;;;;;;;13.07;9.95;;;;;;;8.90;100.00;99259.47;1229879;24;20277;-85
2023/10/19 00:56:13;;;;;;;10.85;8.43;;;;;;;8.94;100.00;99257.94;1237561;24;20606;-84
2023/10/19 00:56:51;;;;;;;12.25;10.18;;;;;;;8.90;100.00;99254.16;1244223;23;20283;-85
2023/10/19 00:57:33;;;;;;;14.02;10.32;;;;;;;8.93;100.00;99245.72;1251370;23;20256;-84
2023/10/19 00:58:09;;;;;;;9.98;8.25;;;;;;;9.04;100.00;99251.16;1242894;23;20283;-84
2023/10/19 00:58:41;;;;;;;13.65;9.20;;;;;;;9.00;100.00;99250.84;1237629;24;20267;-84
2023/10/19 00:59:20;;;;;;;11.20;9.85;;;;;;;9.02;100.00;99250.59;1241902;23;20331;-85
2023/10/19 00:59:54;;;;;;;10.75;9.63;;;;;;;9.01;100.00;99251.66;1237634;24;20257;-85
2023/10/19 01:00:34;;;;;;;13.48;9.20;;;;;;;9.01;100.00;99246.34;1235111;24;20340;-84
2023/10/19 01:01:06;;;;;;;12.55;8.55;;;;;;;9.09;100.00;99244.09;1243247;23;20279;-84
2023/10/19 01:01:43;;;;;;;13.32;8.77;;;;;;;9.03;100.00;99246.91;1243548;23;20260;-84
2023/10/19 01:02:17;;;;;;;11.52;9.32;;;;;;;9.07;100.00;99245.38;1237509;24;20332;-84
2023/10/19 01:02:51;;;;;;;9.98;8.98;;;;;;;9.02;100.00;99242.63;1227206;24;20711;-84
2023/10/19 01:03:31;;;;;;;11.00;8.13;;;;;;;8.97;100.00;99244.16;1235656;24;20276;-84
2023/10/19 01:04:04;;;;;;;10.77;8.27;;;;;;;8.93;100.00;99243.06;1243655;23;20392;-84
2023/10/19 01:04:35;;;;;;;10.48;8.57;;;;;;;8.98;100.00;99245.78;1247226;23;20023;-83
2023/10/19 01:05:13;;;;;;;13.07;9.00;;;;;;;8.97;100.00;99240.72;1235622;24;20659;-84
2023/10/19 01:05:48;;;;;;;11.32;9.18;;;;;;;9.05;100.00;99245.63;1235648;23;20368;-84
2023/10/19 01:06:20;;;;;;;12.02;9.05;;;;;;;9.00;100.00;99242.88;1235151;23;20257;-84
2023/10/19 01:07:12;;;;;;;13.38;10.13;;;;;;;9.05;100.00;99250.13;1236764;23;20265;-84
2023/10/19 01:07:45;;;;;;;12.13;9.88;;;;;;;8.94;100.00;99249.16;1240499;23;20276;-83
2023/10/19 01:08:23;;;;;;;12.85;10.02;;;;;;;8.96;100.00;99242.56;1237305;24;20316;-84
2023/10/19 01:08:55;;;;;;;12.18;8.75;;;;;;;9.03;100.00;99237.06;1231843;24;20257;-84
2023/10/19 01:09:28;;;;;;;13.15;9.18;;;;;;;9.01;100.00;99244.47;1233273;24;20309;-84
2023/10/19 01:10:04;;;;;;;11.95;8.80;;;;;;;9.07;100.00;99248.03;1234532;24;20322;-84
2023/10/19 01:10:36;;;;;;;11.70;8.60;;;;;;;9.09;100.00;99245.94;1240710;23;20265;-84
2023/10/19 01:11:15;;;;;;;10.52;9.05;;;;;;;9.08;100.00;99247.00;1241244;23;20391;-85
2023/10/19 01:11:52;;;;;;;10.90;8.85;;;;;;;8.99;100.00;99247.38;1241597;23;20323;-84
2023/10/19 01:13:05;;;;;;;11.98;9.40;;;;;;;9.06;100.00;99233.16;1241241;23;20276;-84
2023/10/19 01:13:38;;;;;;;15.38;10.73;;;;;;;8.97;100.00;99238.88;1241425;23;20816;-84
2023/10/19 01:14:23;;;;;;;15.05;9.75;;;;;;;9.01;100.00;99243.69;1232419;24;20402;-84
2023/10/19 01:15:17;;;;;;;11.77;8.82;;;;;;;9.07;100.00;99248.03;1235548;23;20746;-84
2023/10/19 01:15:49;;;;;;;10.95;9.73;;;;;;;9.09;100.00;99256.56;1244899;23;20267;-84
2023/10/19 01:16:21;;;;;;;12.38;10.20;;;;;;;9.09;100.00;99256.56;1235420;23;20286;-84
2023/10/19 01:16:56;;;;;;;17.58;10.80;;;;;;;9.13;100.00;99252.38;1229862;24;20307;-84
2023/10/19 01:17:31;;;;;;;13.43;9.80;;;;;;;9.17;100.00;99248.16;1235461;24;20288;-83
2023/10/19 01:18:03;;;;;;;11.60;8.93;;;;;;;9.21;100.00;99247.41;1239478;23;20721;-84
2023/10/19 01:18:36;;;;;;;14.32;9.75;;;;;;;9.18;100.00;99244.47;1247970;23;20267;-84
2023/10/19 01:19:08;;;;;;;12.20;9.77;;;;;;;9.23;100.00;99241.84;1243361;23;20566;-84
2023/10/19 01:19:40;;;;;;;11.95;9.10;;;;;;;9.25;100.00;99234.44;1243377;23;20256;-84
2023/10/19 01:21:18;;;;;;;13.45;9.07;;;;;;;9.06;100.00;99246.44;1246776;23;20271;-83
2023/10/19 01:21:58;;;;;;;13.68;9.45;;;;;;;9.07;100.00;99246.19;1255201;23;20391;-84
2023/10/19 01:22:30;;;;;;;12.02;9.77;;;;;;;9.12;100.00;99251.56;1242506;23;20279;-82
2023/10/19 01:23:44;;;;;;;11.35;9.18;;;;;;;9.19;100.00;99246.06;1242338;23;20310;-83
2023/10/19 01:24:16;;;;;;;12.38;9.35;;;;;;;9.15;100.00;99255.56;1242539;23;20276;-83
2023/10/19 01:24:49;;;;;;;12.40;9.40;;;;;;;9.21;100.00;99250.06;1249503;23;20252;-83
2023/10/19 01:25:34;;;;;;;10.32;8.90;;;;;;;9.14;100.00;99241.50;1251338;23;20260;-83
2023/10/19 01:26:07;;;;;;;12.95;8.90;;;;;;;9.22;100.00;99242.91;1258830;23;20262;-84
2023/10/19 01:26:40;;;;;;;12.88;9.60;;;;;;;9.22;100.00;99246.38;1251103;23;20275;-84
2023/10/19 01:27:13;;;;;;;11.88;9.65;;;;;;;9.19;100.00;99251.38;1252882;23;20262;-83
2023/10/19 01:27:47;;;;;;;12.60;9.25;;;;;;;9.26;100.00;99249.34;1241517;23;20606;-84
2023/10/19 01:29:00;;;;;;;11.73;10.00;;;;;;;9.23;100.00;99247.97;1241458;23;20776;-84
2023/10/19 01:29:26;;;;;;;14.60;11.02;;;;;;;9.11;100.00;99247.28;1235905;23;20303;-84
2023/10/19 01:30:01;;;;;;;13.02;9.40;;;;;;;9.15;100.00;99248.41;1239408;23;20293;-84
2023/10/19 01:30:33;;;;;;;16.88;11.18;;;;;;;9.16;100.00;99247.34;1237082;23;20276;-83
2023/10/19 01:31:06;;;;;;;14.65;10.43;;;;;;;9.15;100.00;99250.25;1243040;23;20256;-84
2023/10/19 01:31:39;;;;;;;13.30;9.90;;;;;;;9.24;100.00;99248.78;1248633;23;20253;-83
2023/10/19 01:32:15;;;;;;;10.32;8.50;;;;;;;9.29;100.00;99251.50;1245310;23;21141;-84
2023/10/19 01:32:46;;;;;;;12.75;10.50;;;;;;;9.28;100.00;99245.38;1243159;23;20264;-83
2023/10/19 01:33:19;;;;;;;13.43;10.73;;;;;;;9.32;100.00;99251.03;1241372;23;20278;-84
2023/10/19 01:33:50;;;;;;;12.05;10.73;;;;;;;9.15;100.00;99250.25;1243052;23;20256;-84
2023/10/19 01:34:22;;;;;;;11.40;9.80;;;;;;;9.17;100.00;99248.16;1244423;23;20260;-84
2023/10/19 01:34:54;;;;;;;13.85;10.80;;;;;;;9.20;100.00;99253.78;1243840;23;20327;-84
2023/10/19 01:35:27;;;;;;;13.40;10.50;;;;;;;9.24;100.00;99254.09;1246958;23;20525;-84
2023/10/19 01:36:51;;;;;;;12.98;10.15;;;;;;;9.26;100.00;99252.00;1247123;23;20630;-83
2023/10/19 01:37:23;;;;;;;12.82;10.02;;;;;;;9.33;100.00;99251.84;1242289;23;20268;-84
2023/10/19 01:37:54;;;;;;;14.80;9.68;;;;;;;9.30;100.00;99247.78;1246023;23;20358;-84
2023/10/19 01:38:31;;;;;;;10.82;9.23;;;;;;;9.30;100.00;99247.78;1250425;23;20256;-84
2023/10/19 01:39:10;;;;;;;14.10;9.85;;;;;;;9.30;100.00;99247.78;1253026;23;20353;-84
2023/10/19 01:39:45;;;;;;;13.82;10.52;;;;;;;9.36;100.00;99252.13;1255162;23;20259;-84
2023/10/19 01:40:20;;;;;;;12.93;10.13;;;;;;;9.42;100.00;99245.03;1249101;23;20259;-83
2023/10/19 01:40:54;;;;;;;13.30;10.77;;;;;;;9.32;100.00;99245.72;1246976;23;20692;-84
2023/10/19 01:41:27;;;;;;;12.85;10.20;;;;;;;9.27;100.00;99243.78;1241164;23;20270;-84
2023/10/19 01:41:59;;;;;;;13.85;10.80;;;;;;;9.33;100.00;99246.53;1245722;23;20263;-84
2023/10/19 01:42:31;;;;;;;12.10;9.70;;;;;;;9.28;100.00;99241.91;1241385;23;20272;-84
2023/10/19 01:43:03;;;;;;;12.27;9.90;;;;;;;9.30;100.00;99247.78;1236271;23;20742;-84
2023/10/19 01:43:36;;;;;;;12.63;10.15;;;;;;;9.25;100.00;99245.06;1243545;23;20256;-84
2023/10/19 01:44:12;;;;;;;14.73;10.65;;;;;;;9.37;100.00;99239.66;1236151;23;20269;-84
2023/10/19 01:44:44;;;;;;;15.98;9.50;;;;;;;9.34;100.00;99232.97;1239061;23;20329;-84
2023/10/19 01:45:17;;;;;;;17.13;11.18;;;;;;;9.32;100.00;99235.09;1237552;24;20328;-84
2023/10/19 01:45:54;;;;;;;13.10;9.63;;;;;;;9.28;100.00;99237.41;1233357;23;20818;-84
2023/10/19 01:46:33;;;;;;;13.27;10.95;;;;;;;9.36;100.00;99233.53;1240348;23;20278;-84
2023/10/19 01:47:05;;;;;;;11.27;9.85;;;;;;;9.42;100.00;99229.88;1241345;23;20624;-84
2023/10/19 01:47:40;;;;;;;12.88;10.40;;;;;;;9.45;100.00;99234.69;1241093;23;20600;-84
2023/10/19 01:48:13;;;;;;;13.15;10.90;;;;;;;9.45;100.00;99221.41;1241444;23;20272;-83
2023/10/19 01:48:44;;;;;;;16.77;12.00;;;;;;;9.44;100.00;99227.78;1247129;23;20267;-84
2023/10/19 01:49:38;;;;;;;19.77;15.77;;;;;;;9.51;100.00;99228.38;1247144;23;20271;-83
2023/10/19 01:50:19;;;;;;;13.02;10.25;;;;;;;9.46;100.00;99220.34;1235362;24;20280;-84
2023/10/19 01:50:51;;;;;;;14.50;11.10;;;;;;;9.44;100.00;99225.13;1241221;23;20267;-83
2023/10/19 01:51:26;;;;;;;14.88;11.27;;;;;;;9.48;100.00;99220.91;1241141;23;20280;-83
2023/10/19 01:51:57;;;;;;;13.50;10.07;;;;;;;9.51;100.00;99220.41;1235646;24;20635;-84
2023/10/19 01:52:29;;;;;;;18.05;11.63;;;;;;;9.55;100.00;99224.16;1229870;24;20269;-83
2023/10/19 01:53:12;;;;;;;14.63;11.07;;;;;;;9.59;100.00;99220.00;1237315;23;20363;-84
2023/10/19 01:53:44;;;;;;;16.60;11.40;;;;;;;9.52;100.00;99219.34;1243686;23;20253;-84
2023/10/19 01:54:18;;;;;;;13.35;10.77;;;;;;;9.62;100.00;99217.88;1241770;23;20284;-84
2023/10/19 01:54:55;;;;;;;17.10;11.45;;;;;;;9.64;100.00;99215.78;1229816;24;20376;-84
2023/10/19 01:55:37;;;;;;;15.35;13.07;;;;;;;9.63;100.00;99216.84;1229842;24;20605;-83
2023/10/19 01:56:14;;;;;;;13.50;12.00;;;;;;;9.62;100.00;99223.19;1229610;24;20032;-84
2023/10/19 01:56:46;;;;;;;14.05;11.65;;;;;;;9.57;100.00;99221.25;1239055;23;20621;-83
2023/10/19 01:57:18;;;;;;;14.77;11.85;;;;;;;9.55;100.00;99213.53;1232686;24;20282;-84
2023/10/19 01:57:50;;;;;;;17.63;13.13;;;;;;;9.57;100.00;99216.75;1237119;23;20367;-83
2023/10/19 01:58:24;;;;;;;17.38;12.45;;;;;;;9.55;100.00;99224.16;1241001;23;20280;-84
2023/10/19 01:58:57;;;;;;;15.73;12.02;;;;;;;9.59;100.00;99213.88;1241352;23;20272;-84
2023/10/19 01:59:30;;;;;;;15.77;12.75;;;;;;;9.51;100.00;99217.75;1240907;23;20276;-83
2023/10/19 02:00:10;;;;;;;13.57;11.25;;;;;;;9.59;100.00;99213.88;1241135;23;20788;-84
2023/10/19 02:00:43;;;;;;;14.88;11.38;;;;;;;9.64;100.00;99210.47;1242041;23;20264;-83
2023/10/19 02:01:28;;;;;;;15.68;12.60;;;;;;;9.64;100.00;99218.44;1239079;23;20019;-84
2023/10/19 02:02:02;;;;;;;14.20;11.15;;;;;;;9.65;100.00;99217.38;1246995;23;20275;-83
2023/10/19 02:02:35;;;;;;;14.93;10.52;;;;;;;9.68;100.00;99206.25;1231701;24;20262;-84
2023/10/19 02:03:07;;;;;;;14.45;12.13;;;;;;;9.64;100.00;99211.25;1241448;23;20740;-84
2023/10/19 02:03:42;;;;;;;22.00;12.80;;;;;;;9.68;100.00;99212.38;1235239;24;20276;-84
2023/10/19 02:04:13;;;;;;;15.68;11.95;;;;;;;9.66;100.00;99219.00;1247427;23;20266;-84
2023/10/19 02:04:45;;;;;;;17.13;12.23;;;;;;;9.67;100.00;99215.28;1243297;23;20255;-84
2023/10/19 02:05:18;;;;;;;13.38;10.95;;;;;;;9.74;100.00;99207.91;1235461;24;20332;-85
2023/10/19 02:05:58;;;;;;;14.95;12.77;;;;;;;9.64;100.00;99207.81;1238666;23;20256;-84
2023/10/19 02:06:39;;;;;;;15.55;11.00;;;;;;;9.69;100.00;99210.50;1241440;23;20294;-84
2023/10/19 02:07:17;;;;;;;17.77;13.10;;;;;;;9.67;100.00;99209.97;1237452;23;20314;-84
2023/10/19 02:07:49;;;;;;;15.88;11.32;;;;;;;9.64;100.00;99205.16;1241535;23;20160;-84
2023/10/19 02:08:25;;;;;;;13.70;11.40;;;;;;;9.72;100.00;99202.03;1241532;23;20629;-84
2023/10/19 02:09:17;;;;;;;15.93;12.55;;;;;;;9.65;100.00;99202.22;1237227;23;20253;-84
2023/10/19 02:09:51;;;;;;;16.63;12.55;;;;;;;9.72;100.00;99196.72;1237562;23;20264;-84
2023/10/19 02:10:22;;;;;;;14.15;11.32;;;;;;;9.75;100.00;99190.88;1241515;23;20272;-84
2023/10/19 02:10:54;;;;;;;13.93;11.88;;;;;;;9.72;100.00;99192.19;1236330;23;20280;-84
2023/10/19 02:11:26;;;;;;;17.70;13.35;;;;;;;9.76;100.00;99197.81;1235470;23;20856;-84
2023/10/19 02:11:58;;;;;;;12.70;10.98;;;;;;;9.80;100.00;99198.91;1249261;23;20334;-83
2023/10/19 02:12:33;;;;;;;15.52;13.40;;;;;;;9.67;100.00;99202.78;1235354;23;20273;-84
2023/10/19 02:13:08;;;;;;;14.70;11.88;;;;;;;9.74;100.00;99190.09;1240688;23;20738;-84
2023/10/19 02:13:40;;;;;;;15.30;12.25;;;;;;;9.65;100.00;99191.59;1241834;23;20275;-84
2023/10/19 02:14:14;;;;;;;14.65;11.45;;;;;;;9.68;100.00;99193.75;1246671;23;20260;-84
2023/10/19 02:14:46;;;;;;;16.30;12.15;;;;;;;9.74;100.00;99199.91;1247445;23;20399;-85
2023/10/19 02:15:18;;;;;;;16.50;13.40;;;;;;;9.71;100.00;99190.59;1244154;23;20605;-85
2023/10/19 02:15:51;;;;;;;21.20;12.82;;;;;;;9.72;100.00;99196.72;1249085;23;20607;-84
2023/10/19 02:16:23;;;;;;;17.20;12.82;;;;;;;9.77;100.00;99191.44;1250888;23;20757;-85
2023/10/19 02:17:03;;;;;;;14.35;11.85;;;;;;;9.79;100.00;99189.34;1242392;23;20280;-84
2023/10/19 02:17:37;;;;;;;18.30;11.68;;;;;;;9.84;100.00;99192.84;1241035;23;20287;-84
2023/10/19 02:18:08;;;;;;;15.75;12.38;;;;;;;9.79;100.00;99192.78;1237468;23;20027;-84
2023/10/19 02:18:41;;;;;;;17.00;12.35;;;;;;;9.80;100.00;99193.59;1243442;23;20380;-84
2023/10/19 02:19:14;;;;;;;15.52;12.20;;;;;;;9.90;100.00;99189.19;1235425;23;20269;-84
2023/10/19 02:19:46;;;;;;;14.07;12.43;;;;;;;9.92;100.00;99186.28;1235370;23;20276;-84
2023/10/19 02:20:24;;;;;;;15.93;12.25;;;;;;;9.84;100.00;99184.06;1243531;23;20733;-85
2023/10/19 02:21:14;;;;;;;14.32;12.15;;;;;;;9.84;100.00;99184.84;1235458;24;20463;-84
2023/10/19 02:21:58;;;;;;;15.80;13.30;;;;;;;9.86;100.00;99184.59;1248843;23;20256;-84
2023/10/19 02:22:30;;;;;;;17.08;13.02;;;;;;;9.89;100.00;99187.59;1242491;23;20279;-84
2023/10/19 02:23:03;;;;;;;14.02;11.45;;;;;;;9.97;100.00;99167.69;1241199;23;20272;-83
2023/10/19 02:23:35;;;;;;;15.52;12.55;;;;;;;9.90;100.00;99173.22;1243234;23;20594;-83
2023/10/19 02:24:07;;;;;;;16.55;13.13;;;;;;;9.91;100.00;99174.03;1240678;23;20345;-84
2023/10/19 02:24:39;;;;;;;14.55;12.25;;;;;;;9.93;100.00;99179.91;1236276;23;20291;-84
2023/10/19 02:25:13;;;;;;;17.52;13.27;;;;;;;9.89;100.00;99176.16;1248984;23;20330;-84
2023/10/19 02:25:45;;;;;;;18.63;14.27;;;;;;;9.93;100.00;99171.94;1253056;23;20277;-84
2023/10/19 02:26:19;;;;;;;19.70;14.13;;;;;;;9.91;100.00;99179.34;1250194;23;20296;-84
2023/10/19 02:26:56;;;;;;;15.63;14.02;;;;;;;9.92;100.00;99178.31;1247084;23;20355;-84
2023/10/19 02:27:28;;;;;;;15.60;13.43;;;;;;;9.86;100.00;99177.47;1243711;23;20282;-83
2023/10/19 02:28:09;;;;;;;14.20;12.32;;;;;;;9.85;100.00;99175.81;1247360;23;20632;-84
2023/10/19 02:28:43;;;;;;;16.20;13.75;;;;;;;9.94;100.00;99170.06;1235414;24;20276;-84
2023/10/19 02:29:15;;;;;;;17.00;13.02;;;;;;;10.01;100.00;99174.13;1242928;23;20335;-84
2023/10/19 02:29:47;;;;;;;16.65;13.57;;;;;;;9.93;100.00;99171.94;1237188;23;20300;-84
2023/10/19 02:30:18;;;;;;;18.05;13.95;;;;;;;9.98;100.00;99173.81;1246414;23;20272;-84
2023/10/19 02:30:50;;;;;;;15.43;13.02;;;;;;;9.85;100.00;99175.03;1241080;23;20396;-84
2023/10/19 02:31:23;;;;;;;15.27;12.82;;;;;;;9.85;100.00;99170.50;1238242;23;20249;-83
2023/10/19 02:31:56;;;;;;;20.77;14.65;;;;;;;9.89;100.00;99170.84;1242248;23;20271;-84
2023/10/19 02:32:28;;;;;;;16.48;13.65;;;;;;;9.91;100.00;99169.53;1239548;23;20809;-84
2023/10/19 02:33:01;;;;;;;18.65;14.10;;;;;;;9.94;100.00;99168.22;1241223;23;20272;-84
2023/10/19 02:33:33;;;;;;;20.02;15.10;;;;;;;9.95;100.00;99169.81;1238449;23;20769;-84
2023/10/19 02:34:10;;;;;;;18.55;13.85;;;;;;;9.94;100.00;99168.22;1229406;24;20270;-83
2023/10/19 02:34:42;;;;;;;18.25;14.88;;;;;;;9.96;100.00;99166.09;1235339;24;20276;-84
2023/10/19 02:35:14;;;;;;;18.75;14.45;;;;;;;10.03;100.00;99176.53;1247152;23;20272;-84
2023/10/19 02:35:47;;;;;;;18.98;14.25;;;;;;;10.02;100.00;99165.06;1241009;23;20360;-84
2023/10/19 02:36:20;;;;;;;19.08;14.68;;;;;;;10.01;100.00;99168.00;1238283;23;20257;-84
2023/10/19 02:36:51;;;;;;;16.92;13.60;;;;;;;9.96;100.00;99163.44;1242857;23;20260;-84
2023/10/19 02:37:25;;;;;;;17.88;14.40;;;;;;;10.01;100.00;99168.00;1240954;23;20279;-84
2023/10/19 02:37:58;;;;;;;16.70;14.43;;;;;;;10.10;100.00;99161.94;1244816;23;20252;-84
2023/10/19 02:38:30;;;;;;;17.63;13.63;;;;;;;10.08;100.00;99172.03;1235140;24;20363;-85
2023/10/19 02:39:08;;;;;;;15.57;13.20;;;;;;;10.14;100.00;99171.06;1232267;24;20260;-83
2023/10/19 02:39:40;;;;;;;20.00;14.73;;;;;;;10.10;100.00;99163.81;1241211;23;20351;-84
2023/10/19 02:40:21;;;;;;;19.55;15.02;;;;;;;10.01;100.00;99168.78;1243443;23;20725;-84
2023/10/19 02:40:52;;;;;;;16.65;13.40;;;;;;;10.07;100.00;99170.44;1229494;24;20274;-83
2023/10/19 02:41:26;;;;;;;16.58;13.88;;;;;;;10.10;100.00;99161.94;1231723;24;20567;-84
2023/10/19 02:42:01;;;;;;;18.23;14.43;;;;;;;10.12;100.00;99161.69;1231677;24;20338;-84
2023/10/19 02:42:33;;;;;;;18.15;13.45;;;;;;;10.08;100.00;99165.91;1239008;23;20324;-84
2023/10/19 02:43:04;;;;;;;18.10;14.85;;;;;;;10.17;100.00;99167.06;1239053;23;20268;-84
2023/10/19 02:43:38;;;;;;;17.02;14.60;;;;;;;10.13;100.00;99163.28;1246812;23;20827;-84
2023/10/19 02:44:50;;;;;;;17.52;13.95;;;;;;;10.09;100.00;99164.84;1240080;23;20267;-84
2023/10/19 02:45:23;;;;;;;17.73;14.20;;;;;;;10.11;100.00;99168.06;1239868;23;20257;-84
2023/10/19 02:45:55;;;;;;;18.70;14.38;;;;;;;10.13;100.00;99158.78;1250113;23;20355;-84
2023/10/19 02:46:28;;;;;;;18.48;14.60;;;;;;;10.02;100.00;99165.06;1256787;23;20254;-84
2023/10/19 02:47:05;;;;;;;17.30;13.30;;;;;;;10.04;100.00;99170.94;1252967;23;20271;-84
2023/10/19 02:47:37;;;;;;;18.45;14.48;;;;;;;10.16;100.00;99168.94;1235498;23;20276;-84
2023/10/19 02:48:12;;;;;;;18.80;14.30;;;;;;;10.24;100.00;99161.56;1231502;24;20258;-84
2023/10/19 02:48:44;;;;;;;18.13;15.02;;;;;;;10.25;100.00;99163.16;1223952;24;20282;-84
2023/10/19 02:49:20;;;;;;;18.17;13.88;;;;;;;10.20;100.00;99166.56;1233001;24;20602;-84
2023/10/19 02:49:55;;;;;;;15.55;13.63;;;;;;;10.16;100.00;99166.28;1239518;23;20253;-84